• Join FlightAware (Why Join?)
  • Login
  • US Flag 
03:29PM EST


 

Airport Tracker/Info


-or-


 

Live Flight TrackerFlight Track Log ✈ N143DE ✈ 06-Jul-2013 ✈ KLRO - KTRI

Flight Track Log - Related Links

Times and Time Zones

All times are in EDT time to prevent confusion due to time zone crossing. See the N143DE flight status page for this flight to view local times or setup timezone preferences in your user account.

Time Position Orientation Groundspeed Altitude Reporting Facility
EDT Latitude Longitude Course Direction KTS MPH feet Rate Location/Type
11:28AM 32.8250 -79.8422 324° Northwest 179 206 5,600  Level Jacksonville Center
11:29AM 32.8656 -79.8778 324° Northwest 174 200 7,500 1,800 Climbing Jacksonville Center
11:30AM 32.9081 -79.9136 325° Northwest 174 200 9,300 1,620 Climbing Jacksonville Center
11:31AM 32.9547 -79.9467 329° Northwest 185 213 10,800 1,440 Climbing Jacksonville Center
11:32AM 33.0014 -79.9822 327° Northwest 196 226 12,200 1,380 Climbing Jacksonville Center
11:33AM 33.0503 -80.0153 330° Northwest 196 226 13,600 1,320 Climbing Jacksonville Center
11:34AM 33.0969 -80.0486 329° Northwest 196 226 14,900 1,200 Climbing Jacksonville Center
11:35AM 33.1458 -80.0842 329° Northwest 196 226 16,100 1,200 Climbing Jacksonville Center
11:36AM 33.1989 -80.1247 327° Northwest 201 231 17,400 1,020 Climbing Jacksonville Center
11:37AM 33.2433 -80.1556 330° Northwest 201 231 18,200 900 Climbing Jacksonville Center
11:38AM 33.2900 -80.1939 326° Northwest 201 231 19,200 960 Climbing Jacksonville Center
11:39AM 33.3367 -80.2300 327° Northwest 201 231 20,200 900 Climbing Jacksonville Center
11:40AM 33.3833 -80.2683 326° Northwest 201 231 21,100 900 Climbing Jacksonville Center
11:41AM 33.4322 -80.3067 327° Northwest 201 231 22,000 900 Climbing Jacksonville Center
11:42AM 33.4808 -80.3425 328° Northwest 201 231 22,900 780 Climbing Jacksonville Center
11:43AM 33.5297 -80.3811 327° Northwest 201 231 23,600 540 Climbing Jacksonville Center
11:44AM 33.5806 -80.4194 328° Northwest 206 237 24,000 300 Climbing Jacksonville Center
11:45AM 33.6358 -80.4653 325° Northwest 219 252 24,200 360 Climbing Jacksonville Center
11:46AM 33.7053 -80.5008 337° Northwest 235 270 24,800 360 Climbing Jacksonville Center
11:47AM 33.7644 -80.5467 327° Northwest 245 282 25,000 60 Climbing Jacksonville Center
11:48AM 33.8258 -80.5850 333° Northwest 250 288 25,000  Level Jacksonville Center
11:49AM 33.8892 -80.6286 330° Northwest 255 293 25,000  Level Jacksonville Center
11:50AM 33.9544 -80.6717 331° Northwest 255 293 25,000  Level Jacksonville Center
11:51AM 34.0200 -80.7178 330° Northwest 260 299 25,000  Level Jacksonville Center
11:52AM 34.0875 -80.7586 333° Northwest 260 299 25,000  Level Jacksonville Center
11:53AM 34.1508 -80.8047 329° Northwest 265 305 25,000  Level Jacksonville Center
11:54AM 34.2164 -80.8483 331° Northwest 270 311 25,000  Level Jacksonville Center
11:56AM 34.3861 -80.9653 330° Northwest 257 296 25,000  Level Atlanta Center
11:57AM 34.4519 -81.0083 332° Northwest 251 289 25,000  Level Atlanta Center
11:58AM 34.5175 -81.0514 332° Northwest 251 289 25,000  Level Atlanta Center
11:59AM 34.5833 -81.0969 330° Northwest 256 295 25,000  Level Atlanta Center
12:00PM 34.6492 -81.1400 332° Northwest 269 310 25,000  Level Atlanta Center
12:01PM 34.7150 -81.1858 330° Northwest 269 310 25,000  Level Atlanta Center
12:02PM 34.7806 -81.2317 330° Northwest 274 315 25,000  Level Atlanta Center
12:03PM 34.8400 -81.2700 332° Northwest 274 315 25,000  Level Atlanta Center
12:04PM 34.9056 -81.3161 330° Northwest 274 315 25,000 -420 Level Atlanta Center
12:05PM 34.9756 -81.3644 331° Northwest 274 315 24,200 -540 Descending Atlanta Center
12:06PM 35.0475 -81.4156 330° Northwest 284 327 24,000 -120 Descending Atlanta Center
12:07PM 35.1175 -81.4589 333° Northwest 284 327 24,000  Level Atlanta Center
12:08PM 35.1831 -81.5053 330° Northwest 273 314 24,000  Level Atlanta Center
12:09PM 35.2572 -81.5589 329° Northwest 273 314 24,000  Level Atlanta Center
12:10PM 35.3247 -81.6028 332° Northwest 273 314 24,000 -600 Level Atlanta Center
12:11PM 35.3925 -81.6517 330° Northwest 273 314 22,900 -1,380 Descending Atlanta Center
12:12PM 35.4664 -81.7006 332° Northwest 283 326 21,300 -1,500 Descending Atlanta Center
12:13PM 35.5406 -81.7519 331° Northwest 303 349 20,000 -1,200 Descending Atlanta Center
12:14PM 35.6042 -81.8089 324° Northwest 297 342 18,900 -1,380 Descending Atlanta Center
12:15PM 35.6678 -81.8711 322° Northwest 289 333 17,300 -1,560 Descending Atlanta Center
12:16PM 35.7208 -81.9286 319° Northwest 284 327 15,800 -1,620 Descending Atlanta Center
12:17PM 35.7844 -81.9858 324° Northwest 284 327 14,100 -1,680 Descending Atlanta Center
12:18PM 35.8417 -82.0406 322° Northwest 271 312 12,500 -1,380 Descending Atlanta Center
12:19PM 35.9008 -82.0906 326° Northwest 265 305 11,400 -780 Descending Atlanta Center
12:20PM 35.9517 -82.1381 323° Northwest 243 280 11,000 -240 Descending Atlanta Center
12:21PM 36.0044 -82.1803 327° Northwest 217 250 11,000  Level Atlanta Center
12:22PM 36.0469 -82.2231 321° Northwest 202 232 11,000  Level Atlanta Center
12:23PM 36.0933 -82.2658 323° Northwest 202 232 11,000 -600 Level Atlanta Center
12:24PM 36.1419 -82.3108 323° Northwest 207 238 9,800 -1,380 Descending Atlanta Center
12:25PM 36.1947 -82.3561 325° Northwest 218 251 8,300 -1,260 Descending Atlanta Center
12:26PM 36.2575 -82.3575 359° North 218 251 7,300 -1,080 Descending Atlanta Center
12:27PM 36.3178 -82.3508 North 219 252 6,200 -1,140 Descending Atlanta Center
12:28PM 36.3758 -82.3264 19° North 214 246 5,100 -1,140 Descending Atlanta Center
12:30PM 36.4480 -82.3849 327° Northwest  Level FlightAware Approximate
12:37PM 36.4667 -82.4000 352° North  Level FlightAware Approximate
12:38PM 36.4752 -82.4074 352° North  Level Estimated
12:39PM 36.4752 -82.4074 352° North  Level Estimated
12:40PM 36.4752 -82.4074 352° North  Level Estimated